Welcome to La Porte Aviation Services!

An aviation adventure awaits

Current Weather Conditions

Available data for KPPO from the past 2 hours
LA PORTE, IN
Metar
KPPO 271235Z AUTO 00000KT 10SM CLR 22/19 A3000 RMK AO2 T02160194

12:35 UTC

Wind: 0° 0kt

Visibility: 10 SM

Sky:

Temp: 22 deg C / 71.6 deg F

Dewpoint: 19 deg C / 66.2 deg F

Pressure: 30 inHg

Connect with us on Facebook!

Facebook By Weblizar Powered By Weblizar